createdAt,value
2023-12-14T00:08:14.123Z,99625.05
2023-12-14T00:18:18.026Z,99627.80
2023-12-14T00:28:21.907Z,99630.21
2023-12-14T00:38:25.548Z,99644.77
2023-12-14T00:48:29.207Z,99650.55
2023-12-14T00:58:34.396Z,99655.61
2023-12-14T01:08:38.448Z,99663.61
2023-12-14T01:18:42.196Z,99673.77
2023-12-14T01:28:45.779Z,99688.15
2023-12-14T01:38:50.228Z,99699.70
2023-12-14T01:48:54.663Z,99699.02
2023-12-14T01:58:58.474Z,99695.80
2023-12-14T02:09:02.299Z,99700.55
2023-12-14T02:19:06.708Z,99698.52
2023-12-14T02:29:10.432Z,99704.77
2023-12-14T02:39:14.195Z,99709.69
2023-12-14T02:49:17.867Z,99717.32
2023-12-14T02:59:21.453Z,99730.34
2023-12-14T03:09:24.995Z,99745.58
2023-12-14T03:19:28.666Z,99758.44
2023-12-14T03:29:32.936Z,99767.41
2023-12-14T03:39:36.361Z,99780.61
2023-12-14T03:49:40.156Z,99791.95
2023-12-14T03:59:43.694Z,99806.84
2023-12-14T04:09:47.314Z,99815.98
2023-12-14T04:19:50.976Z,99821.22
2023-12-14T04:29:57.894Z,99822.40
2023-12-14T04:40:02.184Z,99832.21
2023-12-14T04:50:06.587Z,99834.08
2023-12-14T05:00:10.577Z,99835.42
2023-12-14T05:10:14.119Z,99843.88
2023-12-14T05:20:17.800Z,99859.77
2023-12-14T05:30:21.459Z,99871.80
2023-12-14T05:40:25.092Z,99887.03
2023-12-14T05:50:29.161Z,99898.20
2023-12-14T06:00:35.243Z,99911.39
2023-12-14T06:10:39.067Z,99927.48
2023-12-14T06:20:42.914Z,99944.07
2023-12-14T06:30:46.780Z,99960.15
2023-12-14T06:40:51.004Z,99981.80
2023-12-14T06:50:56.405Z,99995.52
2023-12-14T07:01:00.170Z,100009.05
2023-12-14T07:11:04.694Z,100023.77
2023-12-14T07:21:09.560Z,100035.13
2023-12-14T07:31:13.198Z,100041.20
2023-12-14T07:41:17.072Z,100051.55
2023-12-14T07:51:20.914Z,100065.11
2023-12-14T08:01:24.819Z,100076.14
2023-12-14T08:11:29.145Z,100090.40
2023-12-14T08:21:32.887Z,100113.80
2023-12-14T08:31:36.692Z,100123.96
2023-12-14T08:41:40.603Z,100143.62
2023-12-14T08:51:45.043Z,100174.98
2023-12-14T09:01:50.419Z,100181.95
2023-12-14T09:11:55.562Z,100199.96
2023-12-14T09:21:59.699Z,100219.63
2023-12-14T09:32:07.863Z,100224.20
2023-12-14T09:42:12.591Z,100233.36
2023-12-14T09:52:20.094Z,100243.87
2023-12-14T10:02:28.960Z,100253.05
2023-12-14T10:12:32.880Z,100253.44
2023-12-14T10:22:39.199Z,100256.69
2023-12-14T10:32:43.734Z,100262.30
2023-12-14T10:42:52.094Z,100284.70
2023-12-14T10:52:56.858Z,100286.59
2023-12-14T11:03:03.637Z,100280.98
2023-12-14T11:13:13.801Z,100302.88
2023-12-14T11:23:27.648Z,100324.08
2023-12-14T11:33:31.581Z,100329.33
2023-12-14T11:43:42.910Z,100332.38
2023-12-14T11:53:49.459Z,100339.16
2023-12-14T12:03:53.152Z,100349.85
2023-12-14T12:13:59.114Z,100361.72
2023-12-14T12:24:05.382Z,100374.61
2023-12-14T12:34:14.057Z,100382.91
2023-12-14T12:44:18.404Z,100388.00
2023-12-14T12:54:22.119Z,100398.34
2023-12-14T13:04:27.686Z,100416.95
2023-12-14T13:14:32.787Z,100416.22
2023-12-14T13:24:36.831Z,100418.22
2023-12-14T13:34:40.502Z,100439.90
2023-12-14T13:44:44.334Z,100453.92
2023-12-14T13:54:48.038Z,100472.55
2023-12-14T14:04:53.824Z,100490.41
2023-12-14T14:14:57.789Z,100517.27
2023-12-14T14:25:01.957Z,100530.91
2023-12-14T14:35:08.002Z,100549.85
2023-12-14T14:45:12.899Z,100565.83
2023-12-14T14:55:17.516Z,100579.19
2023-12-14T15:52:55.225Z,100680.29
2023-12-14T16:02:58.920Z,100690.01
2023-12-14T16:13:03.039Z,100697.58
2023-12-14T16:23:07.328Z,100718.63
2023-12-14T16:33:11.695Z,100731.17
2023-12-14T16:43:20.949Z,100741.71
2023-12-14T16:53:31.289Z,100756.69
2023-12-14T17:03:35.617Z,100771.52
2023-12-14T17:13:42.078Z,100783.07
2023-12-14T17:23:46.364Z,100798.50
2023-12-14T17:33:51.651Z,100809.88
2023-12-14T17:43:58.870Z,100825.65
2023-12-14T17:54:03.185Z,100835.04
2023-12-14T18:04:07.443Z,100845.13
2023-12-14T18:14:15.046Z,100857.78
2023-12-14T18:24:19.350Z,100883.61
2023-12-14T18:34:34.177Z,100899.14
2023-12-14T18:44:38.867Z,100916.55
2023-12-14T19:06:20.995Z,100969.46
2023-12-14T19:16:34.742Z,100991.97
2023-12-14T19:26:42.719Z,101005.38
2023-12-14T19:36:50.969Z,101011.82
2023-12-14T19:46:55.175Z,101017.39
2023-12-14T19:57:00.847Z,101030.29
2023-12-14T20:07:05.001Z,101042.58
2023-12-14T20:17:11.681Z,101047.87
2023-12-14T20:27:16.801Z,101055.64
2023-12-14T20:37:21.050Z,101068.41
2023-12-14T20:47:43.055Z,101079.46
2023-12-14T20:57:48.294Z,101094.34
2023-12-14T21:07:55.771Z,101115.11
2023-12-14T21:18:00.705Z,101124.55
2023-12-14T21:28:28.492Z,101137.02
2023-12-14T22:01:16.842Z,101152.26
2023-12-14T22:11:25.976Z,101157.60
2023-12-14T22:21:35.523Z,101172.95
2023-12-14T22:31:46.893Z,101192.67
2023-12-14T22:41:55.290Z,101202.56
2023-12-14T22:51:59.200Z,101208.52
2023-12-14T23:02:07.556Z,101204.37
2023-12-14T23:12:12.717Z,101213.51
2023-12-14T23:22:17.888Z,101226.33
2023-12-14T23:32:22.292Z,101231.05
2023-12-14T23:42:26.625Z,101227.89
2023-12-14T23:52:30.702Z,101232.69
